createdAt,value
2023-03-18T00:00:49.564Z,72.08
2023-03-18T00:03:16.288Z,71.73
2023-03-18T00:05:43.001Z,72.69
2023-03-18T00:08:09.773Z,72.28
2023-03-18T00:10:36.307Z,72.00
2023-03-18T00:13:04.519Z,71.79
2023-03-18T00:15:31.579Z,71.43
2023-03-18T00:17:59.789Z,71.45
2023-03-18T00:20:38.381Z,72.24
2023-03-18T00:23:08.635Z,72.11
2023-03-18T00:25:36.642Z,72.30
2023-03-18T00:28:07.415Z,71.99
2023-03-18T00:30:38.503Z,72.17
2023-03-18T00:33:05.285Z,71.68
2023-03-18T00:35:32.342Z,71.73
2023-03-18T00:38:00.419Z,72.03
2023-03-18T00:40:30.962Z,71.93
2023-03-18T00:43:07.663Z,71.66
2023-03-18T00:45:37.672Z,71.35
2023-03-18T00:48:04.758Z,71.39
2023-03-18T00:50:31.988Z,71.95
2023-03-18T00:52:59.605Z,72.33
2023-03-18T00:55:27.528Z,71.94
2023-03-18T00:57:54.460Z,72.22
2023-03-18T01:00:21.428Z,71.98
2023-03-18T01:02:49.264Z,72.73
2023-03-18T01:05:16.517Z,73.29
2023-03-18T01:07:43.573Z,72.98
2023-03-18T01:10:12.541Z,73.74
2023-03-18T01:12:41.140Z,72.57
2023-03-18T01:15:12.679Z,72.71
2023-03-18T01:17:39.322Z,73.28
2023-03-18T01:20:06.753Z,73.38
2023-03-18T01:22:33.278Z,72.65
2023-03-18T01:24:59.880Z,73.51
2023-03-18T01:27:33.427Z,72.93
2023-03-18T01:30:00.678Z,73.13
2023-03-18T01:32:28.813Z,72.55
2023-03-18T01:34:55.942Z,72.86
2023-03-18T01:39:58.330Z,72.64
2023-03-18T01:42:24.924Z,72.83
2023-03-18T01:45:21.804Z,73.23
2023-03-18T01:47:51.620Z,72.86
2023-03-18T01:50:23.071Z,71.78
2023-03-18T01:52:58.131Z,74.28
2023-03-18T01:55:26.736Z,73.62
2023-03-18T01:57:54.565Z,72.26
2023-03-18T02:00:21.977Z,73.09
2023-03-18T02:02:50.782Z,72.75
2023-03-18T02:05:22.255Z,71.88
2023-03-18T02:07:48.771Z,73.33
2023-03-18T02:10:27.942Z,73.38
2023-03-18T02:13:01.370Z,73.87
2023-03-18T02:15:35.505Z,73.32
2023-03-18T02:18:33.760Z,73.71
2023-03-18T02:21:18.950Z,73.34
2023-03-18T02:24:13.852Z,72.42
2023-03-18T02:26:50.381Z,72.57
2023-03-18T02:29:24.651Z,72.77
2023-03-18T02:32:02.799Z,72.15
2023-03-18T02:34:30.269Z,72.02
2023-03-18T02:36:57.869Z,71.75
2023-03-18T02:39:24.653Z,71.28
2023-03-18T02:41:53.312Z,71.68
2023-03-18T02:44:21.246Z,71.57
2023-03-18T02:47:18.731Z,71.42
2023-03-18T02:49:45.476Z,71.56
2023-03-18T02:52:13.666Z,71.36
2023-03-18T02:54:40.327Z,71.99
2023-03-18T02:57:07.456Z,71.02
2023-03-18T02:59:34.491Z,70.78
2023-03-18T03:02:02.130Z,71.41
2023-03-18T03:04:28.806Z,71.33
2023-03-18T03:06:56.785Z,71.10
2023-03-18T03:09:36.869Z,70.76
2023-03-18T03:12:05.189Z,69.89
2023-03-18T03:14:32.114Z,70.85
2023-03-18T03:17:01.353Z,70.82
2023-03-18T03:19:27.959Z,71.61
2023-03-18T03:21:55.401Z,72.46
2023-03-18T03:24:23.740Z,71.27
2023-03-18T03:26:50.441Z,71.91
2023-03-18T03:29:17.000Z,72.78
2023-03-18T03:31:43.561Z,71.71
2023-03-18T03:34:10.716Z,71.96
2023-03-18T03:36:37.434Z,71.56
2023-03-18T03:39:04.252Z,71.36
2023-03-18T03:41:34.479Z,71.04
2023-03-18T03:44:01.193Z,71.84
2023-03-18T03:46:27.833Z,71.38
2023-03-18T03:48:54.880Z,72.15
2023-03-18T03:51:22.125Z,71.31
2023-03-18T03:53:48.770Z,71.36
2023-03-18T03:56:15.514Z,72.12
2023-03-18T03:58:42.293Z,72.06
2023-03-18T04:01:08.886Z,71.75
2023-03-18T04:03:35.570Z,71.94
2023-03-18T04:06:06.725Z,71.52
2023-03-18T04:08:35.243Z,71.73
2023-03-18T04:11:03.415Z,71.65
2023-03-18T04:13:31.228Z,71.66
2023-03-18T04:15:57.771Z,74.09
2023-03-18T04:18:24.456Z,73.44
2023-03-18T04:20:50.992Z,73.33
2023-03-18T04:23:35.102Z,72.97
2023-03-18T04:26:01.838Z,72.67
2023-03-18T04:28:28.512Z,72.44
2023-03-18T04:30:55.439Z,74.09
2023-03-18T04:33:22.225Z,74.51
2023-03-18T04:35:49.450Z,75.39
2023-03-18T04:38:18.321Z,74.36
2023-03-18T04:40:46.279Z,73.85
2023-03-18T04:43:13.098Z,72.90
2023-03-18T04:45:39.985Z,72.88
2023-03-18T04:48:11.395Z,73.60
2023-03-18T04:50:40.875Z,72.76
2023-03-18T04:53:11.711Z,73.13
2023-03-18T04:55:38.382Z,72.75
2023-03-18T04:58:08.333Z,72.61
2023-03-18T05:00:39.560Z,72.95
2023-03-18T05:03:18.431Z,72.52
2023-03-18T05:05:45.576Z,73.88
2023-03-18T05:08:15.250Z,73.96
2023-03-18T05:10:42.668Z,73.77
2023-03-18T05:13:12.609Z,74.07
2023-03-18T05:15:39.197Z,73.42
2023-03-18T05:18:06.366Z,73.38
2023-03-18T05:20:33.875Z,73.30
2023-03-18T05:23:03.130Z,75.74
2023-03-18T05:25:49.022Z,77.53
2023-03-18T05:28:16.321Z,75.45
2023-03-18T05:30:50.500Z,76.85
2023-03-18T05:33:20.926Z,76.29
2023-03-18T05:35:53.526Z,75.67
2023-03-18T05:38:25.293Z,75.52
2023-03-18T05:40:52.154Z,75.60
2023-03-18T05:43:24.651Z,75.64
2023-03-18T05:45:55.129Z,75.49
2023-03-18T05:48:31.644Z,75.71
2023-03-18T05:51:04.312Z,75.67
2023-03-18T05:53:32.018Z,75.29
2023-03-18T05:56:08.722Z,74.67
2023-03-18T05:58:35.403Z,74.89
2023-03-18T06:01:27.532Z,75.13
2023-03-18T06:03:55.193Z,75.22
2023-03-18T06:06:22.211Z,75.40
2023-03-18T06:08:48.932Z,76.59
2023-03-18T06:11:15.785Z,77.12
2023-03-18T06:13:43.356Z,76.63
2023-03-18T06:16:10.837Z,76.14
2023-03-18T06:18:39.045Z,77.05
2023-03-18T06:21:09.054Z,76.54
2023-03-18T06:23:36.502Z,76.49
2023-03-18T06:26:04.398Z,79.04
2023-03-18T06:28:36.155Z,77.17
2023-03-18T06:31:08.691Z,76.96
2023-03-18T06:33:35.287Z,76.48
2023-03-18T06:36:02.980Z,76.54
2023-03-18T06:38:31.434Z,78.50
2023-03-18T06:40:59.875Z,77.42
2023-03-18T06:43:27.141Z,76.15
2023-03-18T06:45:54.208Z,76.25
2023-03-18T06:48:21.007Z,75.99
2023-03-18T06:50:49.760Z,76.26
2023-03-18T06:53:22.474Z,75.44
2023-03-18T06:55:49.973Z,75.17
2023-03-18T06:58:19.898Z,74.06
2023-03-18T07:00:56.602Z,72.32
2023-03-18T07:03:28.145Z,73.92
2023-03-18T07:05:55.950Z,72.27
2023-03-18T07:08:23.032Z,71.49
2023-03-18T07:10:52.678Z,70.97
2023-03-18T07:13:20.359Z,70.45
2023-03-18T07:15:48.094Z,69.84
2023-03-18T07:18:15.055Z,69.46
2023-03-18T07:20:41.962Z,69.25
2023-03-18T07:23:09.957Z,69.10
2023-03-18T07:25:36.873Z,68.98
2023-03-18T07:28:04.944Z,69.51
2023-03-18T07:30:31.834Z,69.70
2023-03-18T07:32:58.713Z,68.94
2023-03-18T07:35:26.677Z,69.38
2023-03-18T07:37:53.237Z,68.40
2023-03-18T07:40:20.809Z,68.94
2023-03-18T07:42:48.102Z,69.16
2023-03-18T07:45:14.641Z,68.74
2023-03-18T07:47:41.641Z,69.79
2023-03-18T07:50:09.671Z,68.04
2023-03-18T07:52:37.499Z,67.73
2023-03-18T07:55:04.687Z,66.81
2023-03-18T07:57:31.477Z,67.30
2023-03-18T07:59:58.052Z,66.96
2023-03-18T08:02:25.373Z,66.72
2023-03-18T08:04:52.656Z,66.68
2023-03-18T08:07:19.929Z,66.26
2023-03-18T08:09:46.877Z,67.27
2023-03-18T08:12:18.764Z,68.63
2023-03-18T08:14:46.697Z,66.14
2023-03-18T08:17:13.337Z,65.84
2023-03-18T08:19:40.072Z,67.39
2023-03-18T08:22:06.734Z,65.70
2023-03-18T08:24:33.525Z,65.49
2023-03-18T08:27:01.715Z,64.17
2023-03-18T08:29:28.257Z,63.58
2023-03-18T08:31:54.861Z,63.31
2023-03-18T08:34:21.898Z,64.97
2023-03-18T08:36:48.431Z,64.20
2023-03-18T08:39:15.910Z,64.26
2023-03-18T08:41:44.795Z,65.93
2023-03-18T08:44:12.468Z,67.12
2023-03-18T08:46:39.121Z,66.71
2023-03-18T08:49:06.963Z,66.52
2023-03-18T08:51:34.454Z,66.05
2023-03-18T08:54:01.072Z,66.18
2023-03-18T08:56:27.848Z,66.78
2023-03-18T08:58:54.594Z,65.54
2023-03-18T09:01:22.368Z,65.03
2023-03-18T09:03:50.698Z,64.86
2023-03-18T09:06:17.814Z,65.26
2023-03-18T09:08:44.820Z,64.84
2023-03-18T09:11:11.536Z,62.96
2023-03-18T09:13:39.304Z,64.29
2023-03-18T09:16:07.294Z,63.38
2023-03-18T09:18:35.338Z,62.64
2023-03-18T09:21:03.308Z,62.63
2023-03-18T09:23:30.083Z,60.36
2023-03-18T09:25:57.236Z,59.58
2023-03-18T09:28:23.970Z,59.61
2023-03-18T09:30:51.159Z,60.33
2023-03-18T09:33:17.921Z,59.55
2023-03-18T09:35:44.853Z,57.11
2023-03-18T09:38:16.701Z,58.77
2023-03-18T09:41:12.619Z,57.06
2023-03-18T09:44:04.033Z,57.93
2023-03-18T09:46:57.130Z,59.06
2023-03-18T09:49:38.986Z,56.23
2023-03-18T09:52:27.128Z,52.99
2023-03-18T09:55:03.379Z,49.52
2023-03-18T09:57:35.578Z,50.08
2023-03-18T10:00:09.190Z,48.09
2023-03-18T10:02:42.333Z,47.76
2023-03-18T10:05:19.647Z,47.63
2023-03-18T10:07:49.962Z,47.35
2023-03-18T10:10:27.977Z,48.82
2023-03-18T10:13:08.505Z,49.37
2023-03-18T10:15:42.684Z,47.70
2023-03-18T10:18:26.613Z,46.55
2023-03-18T10:21:05.440Z,45.33
2023-03-18T10:24:08.645Z,45.25
2023-03-18T10:26:45.109Z,45.75
2023-03-18T10:29:32.064Z,45.95
2023-03-18T10:32:03.467Z,46.57
2023-03-18T10:34:46.408Z,47.79
2023-03-18T10:37:35.909Z,47.73
2023-03-18T10:40:02.946Z,46.64
2023-03-18T10:42:33.008Z,46.73
2023-03-18T10:45:15.455Z,46.03
2023-03-18T10:47:47.025Z,47.03
2023-03-18T10:50:23.932Z,46.28
2023-03-18T10:53:04.604Z,46.61
2023-03-18T10:55:38.152Z,46.23
2023-03-18T10:58:15.416Z,45.65
2023-03-18T11:00:42.723Z,47.26
2023-03-18T11:12:05.757Z,45.44
2023-03-18T11:14:37.674Z,45.45
2023-03-18T11:17:17.899Z,45.07
2023-03-18T11:19:49.873Z,45.73
2023-03-18T11:22:23.914Z,43.99
2023-03-18T11:25:12.460Z,43.77
2023-03-18T11:27:41.629Z,44.08
2023-03-18T11:30:34.144Z,44.95
2023-03-18T11:33:10.503Z,44.00
2023-03-18T11:35:46.007Z,45.53
2023-03-18T11:38:34.055Z,43.45
2023-03-18T11:41:16.973Z,43.34
2023-03-18T11:44:05.628Z,43.80
2023-03-18T11:46:43.457Z,43.78
2023-03-18T11:49:15.572Z,45.15
2023-03-18T11:51:51.276Z,45.43
2023-03-18T11:54:34.994Z,44.48
2023-03-18T11:57:13.371Z,43.69
2023-03-18T11:59:56.498Z,43.58
2023-03-18T12:02:29.144Z,45.27
2023-03-18T12:05:03.787Z,48.01
2023-03-18T12:08:18.344Z,44.91
2023-03-18T12:10:51.303Z,45.00
2023-03-18T12:13:25.491Z,44.65
2023-03-18T12:16:01.492Z,45.61
2023-03-18T12:18:31.092Z,44.46
2023-03-18T12:21:09.941Z,43.39
2023-03-18T12:24:11.954Z,44.64
2023-03-18T12:27:27.372Z,46.66
2023-03-18T12:30:11.667Z,44.51
2023-03-18T12:32:42.612Z,43.96
2023-03-18T12:35:24.294Z,43.66
2023-03-18T12:38:00.071Z,43.17
2023-03-18T12:40:42.446Z,42.97
2023-03-18T12:43:28.450Z,43.17
2023-03-18T12:46:03.086Z,44.32
2023-03-18T12:48:44.170Z,43.47
2023-03-18T12:51:25.323Z,43.42
2023-03-18T12:54:10.207Z,42.44
2023-03-18T12:56:43.913Z,42.41
2023-03-18T12:59:21.835Z,42.85
2023-03-18T13:02:07.332Z,42.02
2023-03-18T13:04:39.316Z,41.57
2023-03-18T13:07:16.519Z,42.07
2023-03-18T13:10:15.724Z,41.01
2023-03-18T13:12:44.308Z,40.70
2023-03-18T13:15:35.813Z,41.41
2023-03-18T13:18:36.938Z,41.07
2023-03-18T13:21:05.442Z,42.28
2023-03-18T13:24:00.139Z,42.06
2023-03-18T13:26:51.126Z,42.81
2023-03-18T13:29:53.327Z,43.75
2023-03-18T13:32:22.907Z,41.72
2023-03-18T13:35:20.637Z,42.61
2023-03-18T13:38:17.300Z,42.59
2023-03-18T13:41:12.068Z,43.29
2023-03-18T13:43:42.842Z,43.73
2023-03-18T13:46:23.731Z,42.90
2023-03-18T13:48:59.664Z,43.11
2023-03-18T13:51:29.376Z,46.95
2023-03-18T13:54:00.592Z,45.37
2023-03-18T13:56:48.509Z,45.71
2023-03-18T13:59:35.308Z,43.93
2023-03-18T14:02:23.737Z,46.75
2023-03-18T14:04:52.099Z,44.89
2023-03-18T14:07:21.107Z,45.56
2023-03-18T14:10:15.272Z,42.77
2023-03-18T14:12:47.419Z,42.47
2023-03-18T14:15:14.678Z,42.88
2023-03-18T14:17:48.548Z,41.84
2023-03-18T14:20:15.000Z,42.72
2023-03-18T14:22:42.741Z,41.26
2023-03-18T14:25:18.260Z,42.09
2023-03-18T14:27:47.671Z,41.25
2023-03-18T14:30:29.583Z,44.58
2023-03-18T14:33:05.246Z,46.09
2023-03-18T14:36:01.883Z,45.70
2023-03-18T14:38:43.013Z,41.98
2023-03-18T14:41:32.545Z,42.07
2023-03-18T14:44:09.099Z,43.35
2023-03-18T14:46:43.595Z,43.50
2023-03-18T14:49:44.683Z,44.42
2023-03-18T14:52:39.818Z,44.59
2023-03-18T14:55:17.170Z,44.74
2023-03-18T14:57:44.917Z,44.39
2023-03-18T15:00:16.608Z,44.46
2023-03-18T15:02:45.257Z,44.06
2023-03-18T15:05:19.240Z,46.32
2023-03-18T15:07:51.299Z,44.12
2023-03-18T15:10:32.897Z,44.97
2023-03-18T15:13:14.733Z,45.73
2023-03-18T15:15:44.570Z,44.24
2023-03-18T15:18:20.640Z,44.10
2023-03-18T15:20:51.247Z,46.74
2023-03-18T15:23:24.459Z,47.94
2023-03-18T15:25:51.500Z,46.65
2023-03-18T15:28:21.505Z,49.26
2023-03-18T15:30:54.488Z,49.47
2023-03-18T15:33:29.552Z,48.09
2023-03-18T15:36:03.247Z,45.92
2023-03-18T15:38:31.202Z,45.29
2023-03-18T15:41:02.909Z,47.71
2023-03-18T15:43:40.291Z,46.75
2023-03-18T15:46:28.575Z,46.02
2023-03-18T15:48:56.556Z,44.52
2023-03-18T15:51:42.339Z,43.27
2023-03-18T15:54:16.433Z,44.24
2023-03-18T15:56:46.490Z,46.68
2023-03-18T15:59:14.430Z,44.45
2023-03-18T16:01:40.979Z,46.52
2023-03-18T16:04:16.549Z,44.13
2023-03-18T16:06:44.397Z,44.75
2023-03-18T16:09:15.790Z,45.97
2023-03-18T16:11:43.663Z,50.12
2023-03-18T16:14:16.019Z,49.61
2023-03-18T16:16:42.581Z,51.99
2023-03-18T16:19:25.018Z,52.91
2023-03-18T16:21:52.797Z,53.36
2023-03-18T16:24:20.076Z,55.37
2023-03-18T16:26:47.052Z,55.87
2023-03-18T16:29:33.584Z,55.92
2023-03-18T16:32:01.087Z,56.51
2023-03-18T16:34:27.942Z,56.80
2023-03-18T16:36:55.271Z,58.09
2023-03-18T16:39:34.043Z,57.97
2023-03-18T16:42:02.253Z,58.71
2023-03-18T16:44:28.811Z,57.55
2023-03-18T16:46:57.562Z,58.62
2023-03-18T16:49:29.238Z,59.34
2023-03-18T16:51:56.866Z,59.44
2023-03-18T16:54:26.458Z,60.35
2023-03-18T16:57:02.736Z,61.00
2023-03-18T16:59:33.661Z,60.88
2023-03-18T17:02:00.703Z,61.84
2023-03-18T17:04:35.613Z,61.53
2023-03-18T17:07:04.857Z,62.77
2023-03-18T17:09:31.991Z,62.42
2023-03-18T17:12:03.050Z,64.43
2023-03-18T17:14:37.735Z,63.12
2023-03-18T17:17:18.215Z,63.60
2023-03-18T17:19:44.762Z,64.78
2023-03-18T17:22:21.633Z,63.07
2023-03-18T17:24:48.879Z,63.84
2023-03-18T17:27:22.095Z,63.84
2023-03-18T17:29:49.163Z,64.17
2023-03-18T17:32:16.602Z,64.41
2023-03-18T17:34:46.534Z,65.69
2023-03-18T17:37:13.011Z,64.94
2023-03-18T17:39:40.685Z,65.76
2023-03-18T17:42:29.681Z,65.26
2023-03-18T17:44:59.521Z,65.48
2023-03-18T17:47:26.255Z,66.32
2023-03-18T17:49:53.800Z,66.06
2023-03-18T17:52:21.729Z,66.05
2023-03-18T17:54:48.342Z,66.19
2023-03-18T17:57:19.346Z,65.63
2023-03-18T17:59:46.546Z,65.51
2023-03-18T18:02:17.649Z,66.18
2023-03-18T18:04:51.483Z,66.76
2023-03-18T18:07:21.834Z,66.11
2023-03-18T18:09:49.573Z,65.93
2023-03-18T18:12:25.012Z,67.03
2023-03-18T18:14:51.723Z,67.37
2023-03-18T18:17:19.167Z,67.56
2023-03-18T18:19:46.309Z,67.25
2023-03-18T18:22:23.003Z,66.69
2023-03-18T18:24:50.418Z,67.22
2023-03-18T18:27:17.087Z,66.73
2023-03-18T18:29:45.921Z,67.24
2023-03-18T18:32:13.181Z,67.27
2023-03-18T18:34:39.772Z,66.42
2023-03-18T18:37:06.696Z,68.88
2023-03-18T18:39:33.309Z,69.09
2023-03-18T18:41:59.816Z,68.82
2023-03-18T18:44:26.575Z,68.67
2023-03-18T18:46:53.830Z,68.40
2023-03-18T18:49:24.637Z,68.31
2023-03-18T18:51:56.118Z,67.60
2023-03-18T18:54:24.515Z,68.61
2023-03-18T18:56:54.042Z,68.31
2023-03-18T18:59:25.936Z,68.15
2023-03-18T19:01:55.462Z,69.40
2023-03-18T19:04:22.095Z,70.30
2023-03-18T19:06:50.800Z,69.71
2023-03-18T19:09:20.541Z,70.83
2023-03-18T19:11:47.575Z,69.87
2023-03-18T19:14:28.327Z,69.60
2023-03-18T19:16:58.554Z,70.11
2023-03-18T19:19:28.571Z,69.92
2023-03-18T19:21:55.433Z,70.10
2023-03-18T19:24:38.135Z,70.17
2023-03-18T19:27:19.886Z,71.26
2023-03-18T19:29:47.231Z,70.58
2023-03-18T19:32:19.694Z,69.96
2023-03-18T19:34:47.688Z,70.04
2023-03-18T19:37:22.541Z,70.95
2023-03-18T19:39:49.476Z,71.28
2023-03-18T19:42:18.373Z,69.52
2023-03-18T19:44:45.662Z,70.86
2023-03-18T19:47:19.164Z,71.01
2023-03-18T19:49:46.019Z,70.43
2023-03-18T19:52:17.012Z,70.27
2023-03-18T19:54:43.872Z,71.43
2023-03-18T19:57:20.640Z,71.26
2023-03-18T19:59:48.737Z,71.42
2023-03-18T20:02:28.737Z,72.19
2023-03-18T20:04:58.009Z,71.52
2023-03-18T20:07:27.432Z,71.30
2023-03-18T20:09:54.886Z,72.08
2023-03-18T20:12:37.627Z,72.22
2023-03-18T20:15:05.675Z,72.04
2023-03-18T20:17:37.316Z,71.85
2023-03-18T20:20:05.472Z,71.95
2023-03-18T20:22:41.104Z,73.34
2023-03-18T20:25:15.690Z,73.03
2023-03-18T20:27:42.383Z,72.75
2023-03-18T20:30:27.736Z,73.54
2023-03-18T20:32:54.752Z,72.90
2023-03-18T20:35:21.743Z,73.44
2023-03-18T20:37:48.626Z,73.07
2023-03-18T20:40:23.249Z,72.38
2023-03-18T20:42:50.107Z,72.38
2023-03-18T20:45:17.665Z,72.37
2023-03-18T20:47:45.553Z,73.22
2023-03-18T20:50:17.958Z,72.59
2023-03-18T20:52:47.341Z,73.20
2023-03-18T20:55:26.672Z,72.83
2023-03-18T20:57:54.217Z,72.97
2023-03-18T21:00:24.585Z,72.50
2023-03-18T21:02:53.502Z,72.51
2023-03-18T21:05:20.690Z,72.15
2023-03-18T21:07:48.108Z,73.98
2023-03-18T21:10:20.702Z,73.91
2023-03-18T21:12:48.353Z,72.80
2023-03-18T21:15:21.465Z,72.72
2023-03-18T21:17:49.018Z,72.68
2023-03-18T21:20:22.392Z,72.57
2023-03-18T21:22:50.754Z,72.36
2023-03-18T21:25:26.520Z,72.39
2023-03-18T21:27:53.758Z,72.38
2023-03-18T21:30:22.554Z,72.30
2023-03-18T21:32:50.936Z,72.28
2023-03-18T21:35:23.428Z,71.77
2023-03-18T21:37:50.878Z,71.83
2023-03-18T21:40:20.497Z,72.37
2023-03-18T21:42:48.988Z,72.96
2023-03-18T21:45:19.068Z,73.73
2023-03-18T21:47:45.991Z,73.87
2023-03-18T21:50:26.989Z,73.91
2023-03-18T21:52:54.654Z,73.58
2023-03-18T21:55:22.095Z,73.24
2023-03-18T21:57:49.526Z,73.28
2023-03-18T22:00:20.024Z,73.63
2023-03-18T22:02:47.991Z,73.04
2023-03-18T22:05:23.134Z,73.10
2023-03-18T22:07:51.471Z,72.93
2023-03-18T22:10:21.175Z,73.04
2023-03-18T22:12:47.763Z,74.01
2023-03-18T22:15:26.773Z,75.45
2023-03-18T22:17:53.371Z,74.79
2023-03-18T22:20:20.000Z,74.64
2023-03-18T22:22:47.274Z,74.30
2023-03-18T22:25:31.123Z,74.64
2023-03-18T22:27:58.530Z,74.98
2023-03-18T22:30:27.327Z,74.67
2023-03-18T22:32:54.924Z,74.09
2023-03-18T22:35:24.988Z,73.65
2023-03-18T22:37:52.389Z,73.41
2023-03-18T22:40:25.348Z,73.89
2023-03-18T22:42:57.020Z,73.68
2023-03-18T22:45:27.494Z,74.31
2023-03-18T22:48:16.927Z,73.70
2023-03-18T22:50:43.759Z,73.53
2023-03-18T22:53:19.327Z,73.35
2023-03-18T22:55:46.892Z,74.24
2023-03-18T22:58:19.700Z,73.70
2023-03-18T23:00:47.261Z,74.85
2023-03-18T23:03:18.451Z,75.00
2023-03-18T23:05:46.970Z,74.25
2023-03-18T23:08:14.676Z,74.33
2023-03-18T23:10:41.928Z,74.02
2023-03-18T23:13:25.636Z,73.92
2023-03-18T23:15:52.216Z,74.23
2023-03-18T23:18:19.898Z,74.61
2023-03-18T23:20:48.769Z,74.25
2023-03-18T23:23:16.150Z,74.68
2023-03-18T23:25:44.247Z,74.07
2023-03-18T23:28:11.236Z,74.26
2023-03-18T23:30:40.060Z,74.28
2023-03-18T23:33:07.797Z,74.26
2023-03-18T23:35:34.717Z,74.53
2023-03-18T23:38:01.461Z,74.26
2023-03-18T23:40:28.303Z,74.13
2023-03-18T23:42:55.300Z,75.38
2023-03-18T23:45:24.494Z,75.13
2023-03-18T23:47:51.611Z,75.27
2023-03-18T23:50:18.292Z,75.01
2023-03-18T23:52:44.906Z,75.42
2023-03-18T23:55:34.061Z,75.79
2023-03-18T23:58:01.344Z,76.08
